createdAt,value
2022-09-15T00:01:00.922Z,12.28
2022-09-15T00:02:04.010Z,12.26
2022-09-15T00:03:08.819Z,12.28
2022-09-15T00:04:11.459Z,12.27
2022-09-15T00:05:13.948Z,12.25
2022-09-15T00:06:17.610Z,12.28
2022-09-15T00:07:20.101Z,12.24
2022-09-15T00:08:22.554Z,12.23
2022-09-15T00:09:25.066Z,12.23
2022-09-15T00:10:27.708Z,12.20
2022-09-15T00:11:30.270Z,12.19
2022-09-15T00:12:33.026Z,12.17
2022-09-15T00:13:35.675Z,12.17
2022-09-15T00:14:38.152Z,12.16
2022-09-15T00:15:40.599Z,12.13
2022-09-15T00:16:43.502Z,12.14
2022-09-15T00:17:46.131Z,12.10
2022-09-15T00:18:48.639Z,12.09
2022-09-15T00:19:51.131Z,12.07
2022-09-15T00:20:54.107Z,12.06
2022-09-15T00:21:56.761Z,12.02
2022-09-15T00:22:59.209Z,12.00
2022-09-15T00:24:01.672Z,11.98
2022-09-15T00:25:04.139Z,11.95
2022-09-15T00:26:07.092Z,11.98
2022-09-15T00:27:09.757Z,11.94
2022-09-15T00:28:12.241Z,11.91
2022-09-15T00:29:14.703Z,11.90
2022-09-15T00:30:17.785Z,11.89
2022-09-15T00:31:20.296Z,11.86
2022-09-15T00:32:22.784Z,11.85
2022-09-15T00:33:25.231Z,11.82
2022-09-15T00:34:27.682Z,11.79
2022-09-15T00:35:30.263Z,11.79
2022-09-15T00:36:34.124Z,11.75
2022-09-15T00:37:36.572Z,11.71
2022-09-15T00:38:39.027Z,11.70
2022-09-15T00:39:41.484Z,11.69
2022-09-15T00:40:44.281Z,11.68
2022-09-15T00:41:46.770Z,11.66
2022-09-15T00:42:50.130Z,11.63
2022-09-15T00:43:52.863Z,11.61
2022-09-15T00:44:55.462Z,11.65
2022-09-15T00:45:57.974Z,11.62
2022-09-15T00:47:18.350Z,11.61
2022-09-15T00:48:04.857Z,11.62
2022-09-15T00:49:07.367Z,11.62
2022-09-15T00:50:10.309Z,11.61
2022-09-15T00:51:13.131Z,11.60
2022-09-15T00:52:15.612Z,11.59
2022-09-15T00:53:18.053Z,11.56
2022-09-15T00:54:20.952Z,11.56
2022-09-15T00:55:23.736Z,11.58
2022-09-15T00:56:26.727Z,11.57
2022-09-15T00:57:29.195Z,11.54
2022-09-15T00:58:31.987Z,11.52
2022-09-15T00:59:34.493Z,11.51
2022-09-15T01:00:37.343Z,11.50
2022-09-15T01:01:40.156Z,11.52
2022-09-15T01:02:43.094Z,11.50
2022-09-15T01:03:45.580Z,11.46
2022-09-15T01:04:48.031Z,11.48
2022-09-15T01:05:50.473Z,11.46
2022-09-15T01:06:53.064Z,11.44
2022-09-15T01:07:55.749Z,11.46
2022-09-15T01:08:58.191Z,11.48
2022-09-15T01:10:01.016Z,11.51
2022-09-15T01:11:03.464Z,11.49
2022-09-15T01:12:05.975Z,11.49
2022-09-15T01:13:08.415Z,11.50
2022-09-15T01:14:10.863Z,11.54
2022-09-15T01:15:13.570Z,11.54
2022-09-15T01:16:17.180Z,11.58
2022-09-15T01:17:19.833Z,11.59
2022-09-15T01:18:22.272Z,11.62
2022-09-15T01:19:24.719Z,11.60
2022-09-15T01:20:28.068Z,11.65
2022-09-15T01:21:31.624Z,11.65
2022-09-15T01:22:34.158Z,11.67
2022-09-15T01:23:36.638Z,11.66
2022-09-15T01:24:39.088Z,11.68
2022-09-15T01:25:41.529Z,11.67
2022-09-15T01:26:44.391Z,11.64
2022-09-15T01:27:46.858Z,11.64
2022-09-15T01:28:49.321Z,11.66
2022-09-15T01:29:51.763Z,11.67
2022-09-15T01:30:54.406Z,11.67
2022-09-15T01:31:56.930Z,11.71
2022-09-15T01:32:59.738Z,11.70
2022-09-15T01:34:02.174Z,11.68
2022-09-15T01:35:04.663Z,11.67
2022-09-15T01:36:07.512Z,11.67
2022-09-15T01:37:10.038Z,11.68
2022-09-15T01:38:12.528Z,11.68
2022-09-15T01:39:14.975Z,11.73
2022-09-15T01:40:18.844Z,11.76
2022-09-15T01:41:21.520Z,11.79
2022-09-15T01:42:24.096Z,11.82
2022-09-15T01:43:26.773Z,11.84
2022-09-15T01:44:29.208Z,11.86
2022-09-15T01:45:31.758Z,11.88
2022-09-15T01:46:35.454Z,11.91
2022-09-15T01:47:37.900Z,11.96
2022-09-15T01:48:40.394Z,12.00
2022-09-15T01:49:42.838Z,12.03
2022-09-15T01:50:45.476Z,12.04
2022-09-15T01:51:48.131Z,12.09
2022-09-15T01:52:50.571Z,12.14
2022-09-15T01:53:53.317Z,12.16
2022-09-15T01:54:55.763Z,12.20
2022-09-15T01:55:58.209Z,12.22
2022-09-15T01:57:00.855Z,12.25
2022-09-15T01:58:03.336Z,12.27
2022-09-15T01:59:06.165Z,12.27
2022-09-15T02:00:09.212Z,12.29
2022-09-15T02:01:11.692Z,12.31
2022-09-15T02:02:14.570Z,12.32
2022-09-15T02:03:17.441Z,12.33
2022-09-15T02:04:19.930Z,12.32
2022-09-15T02:05:22.866Z,12.33
2022-09-15T02:06:25.811Z,12.32
2022-09-15T02:07:28.245Z,12.29
2022-09-15T02:08:30.695Z,12.24
2022-09-15T02:09:33.220Z,12.24
2022-09-15T02:10:35.852Z,12.24
2022-09-15T02:11:38.294Z,12.21
2022-09-15T02:12:40.733Z,12.20
2022-09-15T02:13:43.183Z,12.18
2022-09-15T02:14:45.678Z,12.14
2022-09-15T02:15:48.279Z,12.08
2022-09-15T02:16:50.998Z,12.01
2022-09-15T02:17:53.466Z,11.99
2022-09-15T02:18:55.947Z,11.93
2022-09-15T02:19:58.410Z,11.89
2022-09-15T02:21:01.350Z,11.88
2022-09-15T02:22:04.291Z,11.85
2022-09-15T02:23:06.929Z,11.80
2022-09-15T02:24:09.385Z,11.78
2022-09-15T02:25:11.860Z,11.73
2022-09-15T02:26:14.716Z,11.69
2022-09-15T02:27:17.155Z,11.64
2022-09-15T02:28:19.714Z,11.61
2022-09-15T02:29:22.157Z,11.59
2022-09-15T02:30:25.329Z,11.58
2022-09-15T02:31:27.831Z,11.56
2022-09-15T02:32:30.412Z,11.52
2022-09-15T02:33:32.850Z,11.47
2022-09-15T02:34:35.280Z,11.43
2022-09-15T02:35:38.025Z,11.44
2022-09-15T02:36:40.777Z,11.44
2022-09-15T02:37:43.225Z,11.39
2022-09-15T02:38:45.660Z,11.35
2022-09-15T02:39:48.130Z,11.33
2022-09-15T02:40:51.174Z,11.35
2022-09-15T02:41:54.117Z,11.35
2022-09-15T02:42:56.752Z,11.33
2022-09-15T02:43:59.241Z,11.31
2022-09-15T02:45:02.012Z,11.32
2022-09-15T02:46:04.825Z,11.33
2022-09-15T02:47:07.226Z,11.41
2022-09-15T02:48:09.913Z,11.38
2022-09-15T02:49:12.530Z,11.36
2022-09-15T02:50:16.778Z,11.34
2022-09-15T02:51:19.267Z,11.36
2022-09-15T02:52:21.702Z,11.36
2022-09-15T02:53:24.147Z,11.37
2022-09-15T02:54:26.615Z,11.35
2022-09-15T02:55:29.097Z,11.36
2022-09-15T02:56:32.741Z,11.38
2022-09-15T02:57:35.181Z,11.38
2022-09-15T02:58:37.614Z,11.36
2022-09-15T02:59:40.050Z,11.35
2022-09-15T03:00:42.767Z,11.36
2022-09-15T03:01:45.436Z,11.40
2022-09-15T03:02:48.086Z,11.44
2022-09-15T03:03:50.523Z,11.43
2022-09-15T03:04:52.987Z,11.42
2022-09-15T03:05:55.446Z,11.42
2022-09-15T03:06:58.226Z,11.43
2022-09-15T03:08:00.656Z,11.43
2022-09-15T03:09:03.092Z,11.45
2022-09-15T03:10:05.832Z,11.46
2022-09-15T03:11:08.270Z,11.45
2022-09-15T03:12:10.736Z,11.47
2022-09-15T03:13:13.180Z,11.50
2022-09-15T03:14:15.622Z,11.51
2022-09-15T03:15:18.054Z,11.53
2022-09-15T03:16:22.352Z,11.54
2022-09-15T03:17:24.883Z,11.54
2022-09-15T03:18:27.356Z,11.55
2022-09-15T03:19:29.787Z,11.53
2022-09-15T03:20:32.521Z,11.52
2022-09-15T03:21:34.960Z,11.54
2022-09-15T03:22:37.938Z,11.60
2022-09-15T03:23:40.680Z,11.63
2022-09-15T03:24:43.236Z,11.67
2022-09-15T03:25:45.671Z,11.73
2022-09-15T03:26:48.215Z,11.76
2022-09-15T03:27:50.697Z,11.80
2022-09-15T03:28:53.158Z,11.83
2022-09-15T03:29:55.676Z,11.86
2022-09-15T03:30:58.341Z,11.87
2022-09-15T03:32:00.814Z,11.89
2022-09-15T03:33:03.381Z,11.92
2022-09-15T03:34:05.867Z,11.96
2022-09-15T03:35:08.305Z,11.99
2022-09-15T03:36:11.039Z,12.05
2022-09-15T03:37:13.493Z,12.06
2022-09-15T03:38:15.957Z,12.09
2022-09-15T03:39:18.393Z,12.13
2022-09-15T03:40:21.723Z,12.16
2022-09-15T03:41:24.194Z,12.19
2022-09-15T03:42:26.634Z,12.24
2022-09-15T03:43:29.204Z,12.25
2022-09-15T03:44:31.641Z,12.28
2022-09-15T03:45:34.131Z,12.31
2022-09-15T03:46:36.869Z,12.34
2022-09-15T03:47:39.314Z,12.34
2022-09-15T03:48:41.813Z,12.38
2022-09-15T03:49:44.250Z,12.40
2022-09-15T03:50:47.203Z,12.42
2022-09-15T03:51:49.653Z,12.44
2022-09-15T03:52:54.529Z,12.49
2022-09-15T03:53:56.486Z,12.50
2022-09-15T03:54:58.927Z,12.50
2022-09-15T03:56:01.361Z,12.53
2022-09-15T03:57:03.821Z,12.56
2022-09-15T03:58:06.773Z,12.56
2022-09-15T03:59:09.253Z,12.56
2022-09-15T04:00:13.119Z,12.57
2022-09-15T04:01:15.827Z,12.57
2022-09-15T04:02:18.731Z,12.61
2022-09-15T04:03:21.170Z,12.59
2022-09-15T04:04:23.675Z,12.63
2022-09-15T04:05:26.148Z,12.64
2022-09-15T04:06:29.098Z,12.56
2022-09-15T04:07:31.546Z,12.55
2022-09-15T04:08:34.076Z,12.54
2022-09-15T04:09:36.679Z,12.51
2022-09-15T04:10:39.434Z,12.50
2022-09-15T04:11:41.874Z,12.52
2022-09-15T04:12:44.327Z,12.49
2022-09-15T04:13:46.840Z,12.50
2022-09-15T04:14:49.306Z,12.53
2022-09-15T04:15:51.794Z,12.54
2022-09-15T04:16:54.517Z,12.55
2022-09-15T04:17:56.961Z,12.52
2022-09-15T04:18:59.404Z,12.50
2022-09-15T04:20:01.875Z,12.52
2022-09-15T04:21:04.515Z,12.50
2022-09-15T04:22:06.968Z,12.50
2022-09-15T04:23:09.415Z,12.54
2022-09-15T04:24:11.855Z,12.54
2022-09-15T04:25:14.328Z,12.55
2022-09-15T04:26:17.985Z,12.58
2022-09-15T04:27:20.429Z,12.62
2022-09-15T04:28:22.868Z,12.60
2022-09-15T04:29:25.329Z,12.63
2022-09-15T04:30:28.640Z,12.57
2022-09-15T04:31:31.176Z,12.56
2022-09-15T04:32:33.643Z,12.57
2022-09-15T04:33:36.084Z,12.61
2022-09-15T04:34:41.367Z,12.65
2022-09-15T04:35:42.923Z,12.66
2022-09-15T04:36:45.630Z,12.68
2022-09-15T04:37:48.075Z,12.73
2022-09-15T04:38:50.625Z,12.77
2022-09-15T04:39:53.269Z,12.82
2022-09-15T04:40:56.057Z,12.85
2022-09-15T04:41:58.899Z,12.88
2022-09-15T04:43:01.559Z,12.90
2022-09-15T04:44:04.002Z,12.92
2022-09-15T04:45:06.450Z,12.89
2022-09-15T04:46:10.555Z,12.87
2022-09-15T04:47:12.978Z,12.89
2022-09-15T04:48:15.514Z,12.88
2022-09-15T04:49:17.958Z,12.92
2022-09-15T04:50:22.221Z,12.90
2022-09-15T04:51:24.693Z,12.87
2022-09-15T04:52:27.135Z,12.89
2022-09-15T04:53:29.585Z,12.90
2022-09-15T04:54:32.024Z,12.93
2022-09-15T04:55:34.469Z,12.96
2022-09-15T04:56:37.259Z,12.96
2022-09-15T04:57:39.902Z,12.96
2022-09-15T04:58:42.759Z,12.96
2022-09-15T04:59:45.227Z,12.94
2022-09-15T05:00:48.201Z,12.91
2022-09-15T05:01:51.236Z,12.89
2022-09-15T05:02:54.096Z,12.87
2022-09-15T05:03:56.542Z,12.90
2022-09-15T05:04:59.184Z,12.84
2022-09-15T05:06:01.636Z,12.81
2022-09-15T05:07:04.130Z,12.79
2022-09-15T05:08:06.864Z,12.78
2022-09-15T05:09:10.587Z,12.80
2022-09-15T05:10:13.726Z,12.83
2022-09-15T05:11:16.369Z,12.86
2022-09-15T05:12:18.862Z,12.89
2022-09-15T05:13:21.403Z,12.97
2022-09-15T05:14:23.851Z,13.04
2022-09-15T05:15:26.289Z,13.05
2022-09-15T05:16:29.545Z,13.06
2022-09-15T05:17:32.140Z,13.11
2022-09-15T05:18:34.592Z,13.16
2022-09-15T05:19:37.041Z,13.17
2022-09-15T05:20:39.782Z,13.18
2022-09-15T05:21:42.941Z,13.21
2022-09-15T05:22:45.865Z,13.23
2022-09-15T05:23:48.378Z,13.24
2022-09-15T05:24:50.821Z,13.28
2022-09-15T05:25:53.467Z,13.30
2022-09-15T05:26:56.103Z,13.35
2022-09-15T05:27:58.848Z,13.35
2022-09-15T05:29:01.283Z,13.34
2022-09-15T05:30:34.786Z,13.32
2022-09-15T05:31:08.572Z,13.37
2022-09-15T05:32:11.067Z,13.40
2022-09-15T05:33:13.543Z,13.42
2022-09-15T05:34:16.059Z,13.44
2022-09-15T05:35:18.502Z,13.50
2022-09-15T05:36:22.764Z,13.53
2022-09-15T05:37:25.200Z,13.58
2022-09-15T05:38:28.017Z,13.62
2022-09-15T05:39:30.490Z,13.63
2022-09-15T05:40:33.728Z,13.65
2022-09-15T05:41:36.623Z,13.68
2022-09-15T05:42:39.568Z,13.71
2022-09-15T05:43:42.490Z,13.76
2022-09-15T05:44:44.938Z,13.81
2022-09-15T05:45:47.384Z,13.87
2022-09-15T05:46:50.315Z,13.92
2022-09-15T05:47:52.834Z,13.90
2022-09-15T05:48:55.354Z,13.96
2022-09-15T05:49:57.835Z,13.98
2022-09-15T05:51:00.592Z,14.01
2022-09-15T05:52:03.034Z,14.05
2022-09-15T05:53:05.482Z,14.08
2022-09-15T05:54:07.952Z,14.19
2022-09-15T05:55:10.474Z,14.25
2022-09-15T05:56:13.658Z,14.22
2022-09-15T05:57:16.123Z,14.28
2022-09-15T05:58:18.572Z,14.38
2022-09-15T05:59:21.296Z,14.38
2022-09-15T06:00:24.347Z,14.38
2022-09-15T06:01:27.049Z,14.40
2022-09-15T06:02:29.678Z,14.45
2022-09-15T06:03:32.264Z,14.51
2022-09-15T06:04:35.066Z,14.44
2022-09-15T06:05:37.573Z,14.43
2022-09-15T06:06:40.367Z,14.45
2022-09-15T06:07:43.916Z,14.53
2022-09-15T06:08:48.109Z,14.52
2022-09-15T06:09:50.787Z,14.54
2022-09-15T06:10:53.457Z,14.51
2022-09-15T06:11:56.098Z,14.51
2022-09-15T06:12:58.554Z,14.45
2022-09-15T06:14:01.040Z,14.43
2022-09-15T06:15:03.613Z,14.45
2022-09-15T06:16:06.609Z,14.46
2022-09-15T06:17:09.289Z,14.45
2022-09-15T06:18:11.751Z,14.47
2022-09-15T06:19:14.203Z,14.49
2022-09-15T06:20:17.799Z,14.50
2022-09-15T06:21:20.253Z,14.52
2022-09-15T06:22:22.933Z,14.57
2022-09-15T06:23:25.481Z,14.55
2022-09-15T06:24:27.965Z,14.55
2022-09-15T06:25:30.560Z,14.59
2022-09-15T06:26:33.537Z,14.64
2022-09-15T06:27:35.987Z,14.64
2022-09-15T06:28:38.427Z,14.56
2022-09-15T06:29:40.864Z,14.65
2022-09-15T06:30:43.938Z,14.77
2022-09-15T06:31:46.432Z,14.84
2022-09-15T06:32:48.977Z,14.84
2022-09-15T06:33:51.629Z,14.92
2022-09-15T06:34:54.261Z,14.98
2022-09-15T06:35:56.742Z,15.08
2022-09-15T06:36:59.628Z,15.15
2022-09-15T06:38:02.272Z,15.26
2022-09-15T06:39:04.715Z,15.34
2022-09-15T06:40:07.584Z,15.40
2022-09-15T06:41:10.234Z,15.50
2022-09-15T06:42:13.988Z,15.56
2022-09-15T06:43:17.151Z,15.65
2022-09-15T06:44:19.590Z,15.73
2022-09-15T06:45:22.027Z,15.79
2022-09-15T06:46:25.242Z,15.88
2022-09-15T06:47:27.869Z,15.91
2022-09-15T06:48:30.334Z,15.99
2022-09-15T06:49:32.867Z,16.03
2022-09-15T06:50:35.531Z,16.03
2022-09-15T06:51:38.062Z,16.03
2022-09-15T06:52:40.503Z,16.06
2022-09-15T06:53:42.950Z,16.16
2022-09-15T06:54:45.382Z,16.30
2022-09-15T06:55:47.827Z,16.40
2022-09-15T06:56:50.659Z,16.46
2022-09-15T06:57:53.334Z,16.51
2022-09-15T06:58:55.775Z,16.51
2022-09-15T06:59:58.214Z,16.57
2022-09-15T07:01:01.267Z,16.57
2022-09-15T07:02:05.307Z,16.59
2022-09-15T07:03:08.669Z,16.61
2022-09-15T07:04:11.511Z,16.66
2022-09-15T07:05:14.137Z,16.69
2022-09-15T07:06:17.705Z,16.73
2022-09-15T07:07:20.356Z,16.79
2022-09-15T07:08:22.811Z,16.98
2022-09-15T07:09:25.306Z,17.25
2022-09-15T07:10:29.359Z,17.41
2022-09-15T07:11:31.821Z,17.61
2022-09-15T07:12:34.295Z,17.73
2022-09-15T07:13:36.757Z,17.83
2022-09-15T07:14:39.343Z,18.08
2022-09-15T07:15:41.784Z,18.33
2022-09-15T07:16:44.466Z,18.66
2022-09-15T07:17:47.203Z,18.89
2022-09-15T07:18:49.658Z,19.13
2022-09-15T07:19:52.100Z,19.39
2022-09-15T07:20:54.779Z,19.58
2022-09-15T07:21:57.225Z,19.80
2022-09-15T07:23:00.110Z,19.89
2022-09-15T07:24:06.408Z,20.09
2022-09-15T07:25:06.897Z,20.32
2022-09-15T07:26:09.957Z,20.54
2022-09-15T07:27:12.592Z,20.75
2022-09-15T07:28:15.255Z,20.96
2022-09-15T07:29:17.740Z,21.01
2022-09-15T07:30:20.891Z,21.13
2022-09-15T07:31:23.375Z,21.16
2022-09-15T07:32:25.913Z,21.19
2022-09-15T07:33:28.371Z,21.28
2022-09-15T07:34:31.006Z,21.14
2022-09-15T07:35:33.452Z,21.16
2022-09-15T07:36:35.990Z,21.29
2022-09-15T07:37:38.449Z,21.33
2022-09-15T07:38:41.126Z,21.18
2022-09-15T07:39:43.584Z,21.38
2022-09-15T07:40:46.435Z,21.67
2022-09-15T07:41:49.074Z,21.80
2022-09-15T07:42:51.752Z,21.98
2022-09-15T07:43:54.259Z,22.18
2022-09-15T07:44:56.710Z,22.35
2022-09-15T07:45:59.261Z,22.47
2022-09-15T07:47:02.150Z,22.61
2022-09-15T07:48:04.587Z,22.70
2022-09-15T07:49:07.064Z,22.81
2022-09-15T07:50:10.107Z,22.95
2022-09-15T07:51:12.553Z,23.07
2022-09-15T07:52:14.995Z,23.12
2022-09-15T07:53:17.484Z,23.10
2022-09-15T07:54:22.855Z,23.10
2022-09-15T07:55:24.416Z,23.05
2022-09-15T07:56:27.667Z,22.93
2022-09-15T07:57:30.183Z,22.77
2022-09-15T07:58:32.619Z,22.56
2022-09-15T07:59:39.340Z,22.36
2022-09-15T08:00:39.921Z,22.20
2022-09-15T08:01:42.534Z,22.13
2022-09-15T08:02:45.028Z,22.02
2022-09-15T08:03:47.867Z,21.98
2022-09-15T08:04:51.627Z,21.94
2022-09-15T08:05:54.463Z,22.00
2022-09-15T08:06:57.100Z,22.04
2022-09-15T08:07:59.537Z,22.10
2022-09-15T08:09:02.188Z,22.21
2022-09-15T08:10:05.171Z,22.38
2022-09-15T08:11:07.654Z,22.60
2022-09-15T08:12:10.508Z,22.74
2022-09-15T08:13:13.147Z,22.89
2022-09-15T08:14:15.635Z,22.99
2022-09-15T08:15:18.198Z,23.03
2022-09-15T08:16:21.185Z,23.11
2022-09-15T08:17:23.723Z,23.15
2022-09-15T08:18:26.171Z,23.18
2022-09-15T08:19:28.620Z,23.19
2022-09-15T08:20:31.216Z,23.21
2022-09-15T08:21:33.849Z,23.38
2022-09-15T08:22:36.484Z,23.44
2022-09-15T08:23:38.945Z,23.46
2022-09-15T08:24:41.600Z,23.47
2022-09-15T08:25:44.067Z,23.40
2022-09-15T08:26:46.910Z,23.33
2022-09-15T08:27:49.366Z,23.26
2022-09-15T08:28:51.888Z,23.31
2022-09-15T08:29:54.652Z,23.42
2022-09-15T08:30:57.725Z,23.54
2022-09-15T08:32:00.519Z,23.56
2022-09-15T08:33:02.958Z,23.64
2022-09-15T08:34:05.397Z,23.75
2022-09-15T08:35:08.032Z,23.82
2022-09-15T08:36:10.963Z,23.93
2022-09-15T08:37:13.399Z,24.04
2022-09-15T08:38:15.847Z,24.06
2022-09-15T08:39:18.290Z,24.06
2022-09-15T08:40:21.390Z,24.15
2022-09-15T08:41:23.999Z,24.34
2022-09-15T08:42:26.649Z,24.61
2022-09-15T08:43:29.296Z,24.74
2022-09-15T08:44:31.738Z,24.78
2022-09-15T08:45:34.430Z,24.81
2022-09-15T08:46:37.472Z,24.84
2022-09-15T08:47:40.115Z,24.89
2022-09-15T08:48:42.578Z,24.87
2022-09-15T08:49:52.071Z,24.74
2022-09-15T08:50:49.829Z,24.62
2022-09-15T08:51:52.355Z,24.55
2022-09-15T08:52:54.861Z,24.49
2022-09-15T08:53:57.578Z,24.47
2022-09-15T08:55:00.058Z,24.44
2022-09-15T08:56:02.606Z,24.31
2022-09-15T08:57:05.114Z,24.16
2022-09-15T08:58:07.710Z,23.96
2022-09-15T08:59:10.165Z,23.76
2022-09-15T09:00:13.213Z,23.68
2022-09-15T09:01:16.071Z,23.77
2022-09-15T09:02:19.005Z,23.84
2022-09-15T09:03:21.555Z,23.83
2022-09-15T09:04:23.992Z,23.81
2022-09-15T09:05:26.457Z,23.87
2022-09-15T09:06:29.314Z,23.93
2022-09-15T09:07:31.846Z,23.99
2022-09-15T09:08:34.296Z,23.97
2022-09-15T09:09:36.751Z,23.93
2022-09-15T09:10:39.608Z,23.95
2022-09-15T09:11:42.115Z,23.89
2022-09-15T09:12:44.596Z,23.83
2022-09-15T09:13:47.345Z,23.85
2022-09-15T09:14:49.795Z,23.84
2022-09-15T09:15:52.675Z,23.85
2022-09-15T09:16:55.516Z,23.90
2022-09-15T09:17:58.011Z,23.90
2022-09-15T09:19:00.658Z,23.89
2022-09-15T09:20:03.657Z,23.90
2022-09-15T09:21:06.395Z,23.98
2022-09-15T09:22:08.862Z,24.11
2022-09-15T09:23:11.499Z,24.24
2022-09-15T09:24:13.981Z,24.43
2022-09-15T09:25:27.096Z,24.51
2022-09-15T09:26:22.612Z,24.69
2022-09-15T09:27:25.058Z,24.88
2022-09-15T09:28:27.542Z,25.02
2022-09-15T09:29:30.090Z,25.06
2022-09-15T09:30:32.864Z,24.65
2022-09-15T09:31:35.309Z,24.99
2022-09-15T09:32:37.909Z,24.86
2022-09-15T09:33:45.106Z,24.93
2022-09-15T09:34:45.066Z,24.90
2022-09-15T09:35:47.537Z,25.12
2022-09-15T09:36:50.399Z,25.29
2022-09-15T09:37:52.863Z,25.35
2022-09-15T09:38:55.339Z,25.43
2022-09-15T09:39:58.112Z,25.50
2022-09-15T09:41:02.609Z,25.53
2022-09-15T09:42:05.428Z,25.52
2022-09-15T09:43:07.887Z,25.59
2022-09-15T09:44:10.376Z,25.56
2022-09-15T09:45:12.854Z,25.54
2022-09-15T09:46:15.972Z,25.31
2022-09-15T09:47:18.481Z,25.31
2022-09-15T09:48:20.994Z,25.22
2022-09-15T09:49:23.772Z,25.15
2022-09-15T09:50:27.323Z,25.13
2022-09-15T09:51:29.868Z,25.20
2022-09-15T09:52:32.346Z,25.22
2022-09-15T09:53:34.807Z,25.19
2022-09-15T09:54:37.308Z,25.23
2022-09-15T09:55:39.756Z,25.18
2022-09-15T09:56:42.627Z,25.18
2022-09-15T09:57:45.110Z,25.14
2022-09-15T09:58:47.558Z,25.04
2022-09-15T09:59:50.040Z,24.88
2022-09-15T10:00:52.697Z,24.68
2022-09-15T10:01:55.415Z,24.56
2022-09-15T10:02:57.991Z,24.44
2022-09-15T10:04:00.458Z,24.25
2022-09-15T10:05:03.017Z,24.06
2022-09-15T10:06:05.819Z,23.74
2022-09-15T10:07:08.272Z,23.67
2022-09-15T10:08:11.149Z,23.62
2022-09-15T10:09:13.705Z,23.49
2022-09-15T10:10:18.003Z,23.51
2022-09-15T10:11:20.444Z,23.57
2022-09-15T10:12:22.922Z,23.60
2022-09-15T10:13:25.633Z,23.47
2022-09-15T10:14:28.183Z,23.40
2022-09-15T10:15:30.661Z,23.37
2022-09-15T10:16:33.342Z,23.23
2022-09-15T10:17:35.857Z,23.15
2022-09-15T10:18:38.317Z,23.05
2022-09-15T10:19:40.764Z,23.03
2022-09-15T10:20:43.533Z,22.92
2022-09-15T10:21:46.082Z,22.77
2022-09-15T10:22:48.737Z,22.77
2022-09-15T10:23:51.518Z,22.67
2022-09-15T10:24:54.376Z,22.58
2022-09-15T10:26:00.557Z,22.60
2022-09-15T10:27:01.333Z,22.51
2022-09-15T10:28:03.780Z,22.29
2022-09-15T10:29:06.269Z,22.32
2022-09-15T10:30:09.217Z,22.33
2022-09-15T10:31:11.695Z,22.42
2022-09-15T10:32:14.370Z,22.49
2022-09-15T10:33:16.981Z,22.55
2022-09-15T10:34:19.435Z,22.61
2022-09-15T10:35:22.100Z,22.52
2022-09-15T10:36:24.989Z,22.38
2022-09-15T10:37:27.436Z,22.35
2022-09-15T10:38:29.985Z,22.29
2022-09-15T10:39:32.425Z,22.35
2022-09-15T10:40:35.458Z,22.24
2022-09-15T10:41:38.393Z,22.36
2022-09-15T10:42:40.935Z,22.39
2022-09-15T10:43:43.497Z,22.38
2022-09-15T10:44:45.953Z,22.47
2022-09-15T10:45:48.452Z,22.49
2022-09-15T10:46:51.701Z,22.38
2022-09-15T10:47:54.141Z,22.25
2022-09-15T10:48:56.596Z,22.26
2022-09-15T10:49:59.042Z,22.00
2022-09-15T10:51:02.002Z,21.89
2022-09-15T10:52:04.724Z,21.83
2022-09-15T10:53:07.171Z,21.70
2022-09-15T10:54:09.712Z,21.62
2022-09-15T10:55:12.161Z,21.65
2022-09-15T10:56:15.427Z,21.70
2022-09-15T10:57:17.895Z,21.62
2022-09-15T10:58:20.340Z,21.61
2022-09-15T10:59:22.778Z,21.57
2022-09-15T11:00:25.453Z,21.64
2022-09-15T11:01:28.120Z,21.70
2022-09-15T11:02:30.834Z,21.75
2022-09-15T11:03:33.330Z,21.77
2022-09-15T11:04:35.765Z,21.72
2022-09-15T11:05:38.214Z,21.61
2022-09-15T11:06:40.851Z,21.62
2022-09-15T11:07:44.438Z,21.63
2022-09-15T11:08:47.304Z,21.56
2022-09-15T11:09:49.747Z,21.53
2022-09-15T11:10:52.390Z,21.44
2022-09-15T11:11:54.860Z,21.37
2022-09-15T11:12:57.386Z,21.33
2022-09-15T11:13:59.820Z,21.27
2022-09-15T11:15:02.503Z,21.22
2022-09-15T11:16:05.474Z,21.18
2022-09-15T11:17:08.193Z,21.03
2022-09-15T11:18:10.861Z,20.95
2022-09-15T11:19:13.319Z,20.79
2022-09-15T11:20:16.170Z,20.68
2022-09-15T11:21:19.424Z,20.64
2022-09-15T11:22:21.869Z,20.46
2022-09-15T11:23:24.440Z,20.39
2022-09-15T11:24:27.083Z,20.30
2022-09-15T11:25:29.530Z,20.19
2022-09-15T11:26:32.489Z,20.07
2022-09-15T11:27:34.940Z,20.04
2022-09-15T11:28:37.403Z,20.01
2022-09-15T11:29:39.880Z,19.98
2022-09-15T11:30:47.532Z,19.80
2022-09-15T11:31:47.210Z,19.62
2022-09-15T11:32:52.918Z,19.47
2022-09-15T11:33:54.154Z,19.34
2022-09-15T11:34:56.592Z,19.22
2022-09-15T11:35:59.026Z,19.04
2022-09-15T11:37:01.895Z,18.92
2022-09-15T11:38:04.335Z,18.81
2022-09-15T11:39:06.807Z,18.72
2022-09-15T11:40:10.626Z,18.58
2022-09-15T11:41:13.504Z,18.47
2022-09-15T11:42:16.359Z,18.38
2022-09-15T11:43:18.902Z,18.18
2022-09-15T11:44:21.685Z,18.06
2022-09-15T11:45:24.509Z,18.01
2022-09-15T11:46:28.407Z,17.93
2022-09-15T11:47:31.050Z,17.85
2022-09-15T11:48:33.690Z,17.79
2022-09-15T11:49:36.211Z,17.80
2022-09-15T11:50:39.056Z,17.68
2022-09-15T11:51:41.508Z,17.69
2022-09-15T11:52:43.943Z,17.67
2022-09-15T11:53:46.530Z,17.64
2022-09-15T11:54:49.205Z,17.60
2022-09-15T11:55:51.664Z,17.61
2022-09-15T11:56:54.530Z,17.65
2022-09-15T11:57:56.976Z,17.63
2022-09-15T11:58:59.440Z,17.60
2022-09-15T12:00:02.013Z,17.55
2022-09-15T12:01:04.555Z,17.58
2022-09-15T12:02:07.554Z,17.62
2022-09-15T12:03:10.531Z,17.66
2022-09-15T12:04:13.242Z,17.66
2022-09-15T12:05:15.909Z,17.61
2022-09-15T12:06:20.167Z,17.57
2022-09-15T12:07:22.624Z,17.60
2022-09-15T12:08:25.359Z,17.53
2022-09-15T12:09:27.793Z,17.52
2022-09-15T12:10:30.488Z,17.57
2022-09-15T12:11:32.938Z,17.54
2022-09-15T12:12:35.407Z,17.51
2022-09-15T12:13:37.844Z,17.45
2022-09-15T12:14:40.295Z,17.47
2022-09-15T12:15:42.851Z,17.44
2022-09-15T12:16:46.144Z,17.46
2022-09-15T12:17:48.830Z,17.35
2022-09-15T12:18:51.281Z,17.32
2022-09-15T12:19:53.870Z,17.25
2022-09-15T12:20:56.557Z,17.20
2022-09-15T12:21:59.035Z,17.17
2022-09-15T12:23:01.495Z,17.13
2022-09-15T12:24:03.954Z,17.13
2022-09-15T12:25:06.445Z,17.11
2022-09-15T12:26:09.338Z,17.12
2022-09-15T12:27:11.779Z,17.14
2022-09-15T12:28:14.236Z,17.10
2022-09-15T12:29:16.975Z,17.12
2022-09-15T12:30:20.532Z,17.15
2022-09-15T12:31:23.043Z,17.11
2022-09-15T12:32:25.557Z,17.13
2022-09-15T12:33:28.020Z,17.12
2022-09-15T12:34:30.502Z,17.13
2022-09-15T12:35:32.953Z,17.16
2022-09-15T12:36:35.649Z,17.15
2022-09-15T12:37:38.280Z,17.08
2022-09-15T12:38:40.802Z,17.05
2022-09-15T12:39:43.241Z,17.10
2022-09-15T12:40:46.205Z,17.12
2022-09-15T12:41:48.704Z,17.13
2022-09-15T12:42:51.161Z,17.15
2022-09-15T12:43:53.708Z,17.18
2022-09-15T12:44:56.388Z,17.22
2022-09-15T12:45:58.845Z,17.24
2022-09-15T12:47:02.031Z,17.24
2022-09-15T12:48:04.461Z,17.27
2022-09-15T12:49:06.919Z,17.32
2022-09-15T12:50:09.963Z,17.37
2022-09-15T12:51:12.725Z,17.41
2022-09-15T12:52:15.190Z,17.43
2022-09-15T12:53:17.642Z,17.44
2022-09-15T12:54:20.387Z,17.48
2022-09-15T12:55:23.045Z,17.52
2022-09-15T12:56:25.974Z,17.51
2022-09-15T12:57:28.444Z,17.52
2022-09-15T12:58:30.892Z,17.47
2022-09-15T12:59:33.333Z,17.48
2022-09-15T13:00:42.405Z,17.49
2022-09-15T13:01:42.415Z,17.49
2022-09-15T13:02:45.469Z,17.46
2022-09-15T13:03:48.062Z,17.45
2022-09-15T13:04:50.499Z,17.43
2022-09-15T13:05:52.948Z,17.43
2022-09-15T13:06:55.820Z,17.43
2022-09-15T13:07:58.297Z,17.46
2022-09-15T13:09:01.008Z,17.48
2022-09-15T13:10:03.751Z,17.45
2022-09-15T13:11:06.200Z,17.41
2022-09-15T13:12:08.652Z,17.42
2022-09-15T13:13:11.240Z,17.40
2022-09-15T13:14:13.873Z,17.39
2022-09-15T13:15:16.421Z,17.38
2022-09-15T13:16:19.236Z,17.39
2022-09-15T13:17:21.928Z,17.33
2022-09-15T13:18:24.828Z,17.28
2022-09-15T13:19:27.278Z,17.27
2022-09-15T13:20:30.767Z,17.26
2022-09-15T13:21:33.488Z,17.23
2022-09-15T13:22:36.128Z,17.18
2022-09-15T13:23:38.827Z,17.20
2022-09-15T13:24:41.323Z,17.23
2022-09-15T13:25:43.820Z,17.22
2022-09-15T13:26:46.473Z,17.23
2022-09-15T13:27:48.925Z,17.24